createdAt,value
2023-03-11T00:02:41.311Z,4.25
2023-03-11T00:07:44.517Z,4.07
2023-03-11T00:12:47.392Z,4.20
2023-03-11T00:17:51.299Z,4.45
2023-03-11T00:22:54.917Z,3.80
2023-03-11T00:27:58.392Z,4.13
2023-03-11T00:33:01.521Z,4.60
2023-03-11T00:38:07.440Z,4.43
2023-03-11T00:43:10.364Z,4.80
2023-03-11T00:48:14.430Z,5.00
2023-03-11T00:53:17.672Z,4.80
2023-03-11T00:58:22.962Z,4.72
2023-03-11T01:03:30.226Z,5.18
2023-03-11T01:08:33.830Z,6.25
2023-03-11T01:13:37.235Z,6.32
2023-03-11T01:18:40.114Z,6.57
2023-03-11T01:23:43.188Z,8.30
2023-03-11T01:28:47.188Z,7.13
2023-03-11T01:33:50.152Z,8.85
2023-03-11T01:38:53.051Z,10.60
2023-03-11T01:43:56.349Z,7.95
2023-03-11T01:49:13.065Z,8.27
2023-03-11T01:54:23.823Z,8.32
2023-03-11T01:59:34.263Z,5.35
2023-03-11T02:04:38.370Z,5.25
2023-03-11T02:09:41.232Z,5.00
2023-03-11T02:14:48.810Z,4.38
2023-03-11T02:20:12.918Z,4.72
2023-03-11T02:25:43.235Z,4.57
2023-03-11T02:30:48.217Z,4.07
2023-03-11T02:35:52.513Z,5.22
2023-03-11T02:41:02.641Z,5.28
2023-03-11T02:46:10.330Z,5.90
2023-03-11T02:51:14.176Z,6.28
2023-03-11T02:56:18.031Z,7.63
2023-03-11T03:01:21.328Z,6.47
2023-03-11T03:06:26.578Z,5.88
2023-03-11T03:11:29.566Z,4.82
2023-03-11T03:16:32.568Z,4.65
2023-03-11T03:21:35.680Z,3.40
2023-03-11T03:26:57.293Z,3.97
2023-03-11T03:32:00.339Z,3.40
2023-03-11T03:37:03.780Z,3.10
2023-03-11T03:42:07.692Z,3.60
2023-03-11T03:47:15.724Z,3.20
2023-03-11T03:52:19.094Z,3.03
2023-03-11T03:57:24.906Z,3.72
2023-03-11T04:02:28.374Z,3.10
2023-03-11T04:12:37.160Z,3.70
2023-03-11T04:17:40.542Z,3.22
2023-03-11T04:22:43.783Z,3.08
2023-03-11T04:27:50.257Z,3.45
2023-03-11T04:32:53.517Z,3.45
2023-03-11T04:37:56.505Z,3.50
2023-03-11T04:43:01.398Z,3.85
2023-03-11T04:48:04.810Z,4.70
2023-03-11T04:53:08.780Z,4.70
2023-03-11T04:58:12.562Z,4.32
2023-03-11T05:03:15.964Z,4.40
2023-03-11T05:08:20.284Z,4.43
2023-03-11T05:13:23.328Z,5.43
2023-03-11T05:18:28.245Z,4.78
2023-03-11T05:23:31.413Z,6.22
2023-03-11T05:28:34.576Z,5.68
2023-03-11T05:33:38.107Z,4.03
2023-03-11T05:38:43.648Z,5.30
2023-03-11T05:43:47.150Z,5.07
2023-03-11T05:48:50.596Z,5.68
2023-03-11T05:53:54.259Z,7.78
2023-03-11T05:59:06.234Z,5.82
2023-03-11T06:04:11.894Z,5.70
2023-03-11T06:09:16.507Z,5.28
2023-03-11T06:14:38.926Z,4.82
2023-03-11T06:19:42.239Z,5.22
2023-03-11T06:24:46.286Z,4.75
2023-03-11T06:29:53.591Z,5.32
2023-03-11T06:34:58.742Z,6.15
2023-03-11T06:40:01.919Z,5.13
2023-03-11T06:45:05.581Z,5.05
2023-03-11T06:50:09.481Z,4.85
2023-03-11T06:55:12.721Z,4.95
2023-03-11T07:00:16.684Z,5.55
2023-03-11T07:05:24.747Z,3.80
2023-03-11T07:10:32.488Z,3.90
2023-03-11T07:15:35.899Z,4.18
2023-03-11T07:20:39.051Z,3.85
2023-03-11T07:25:47.048Z,3.75
2023-03-11T07:30:50.134Z,3.90
2023-03-11T07:35:53.074Z,3.45
2023-03-11T07:40:59.997Z,3.25
2023-03-11T07:46:07.428Z,3.15
2023-03-11T07:51:15.482Z,2.97
2023-03-11T07:56:18.935Z,2.53
2023-03-11T08:01:24.848Z,2.45
2023-03-11T08:06:31.569Z,2.70
2023-03-11T08:11:35.600Z,2.35
2023-03-11T08:16:40.492Z,2.55
2023-03-11T08:21:43.465Z,2.33
2023-03-11T08:26:46.428Z,2.10
2023-03-11T08:31:49.312Z,2.40
2023-03-11T08:36:52.062Z,1.95
2023-03-11T08:41:54.951Z,2.10
2023-03-11T08:46:57.856Z,2.28
2023-03-11T08:52:02.264Z,1.92
2023-03-11T08:57:05.229Z,2.10
2023-03-11T09:02:08.123Z,2.35
2023-03-11T09:07:30.045Z,2.30
2023-03-11T09:12:33.045Z,1.90
2023-03-11T09:17:35.936Z,2.00
2023-03-11T09:22:38.761Z,2.00
2023-03-11T09:27:41.834Z,1.90
2023-03-11T09:32:45.169Z,1.90
2023-03-11T09:37:48.106Z,1.90
2023-03-11T09:43:41.681Z,1.90
2023-03-11T09:48:52.898Z,2.53
2023-03-11T09:54:03.183Z,1.90
2023-03-11T09:59:17.828Z,1.70
2023-03-11T10:05:03.736Z,1.70
2023-03-11T10:10:07.798Z,1.92
2023-03-11T10:15:25.188Z,2.20
2023-03-11T10:20:39.961Z,2.67
2023-03-11T10:25:53.779Z,3.08
2023-03-11T10:31:08.292Z,2.28
2023-03-11T10:36:24.153Z,1.75
2023-03-11T10:41:53.390Z,2.40
2023-03-11T10:46:56.296Z,2.50
2023-03-11T10:51:59.214Z,2.30
2023-03-11T10:57:19.233Z,2.17
2023-03-11T11:02:26.386Z,2.10
2023-03-11T11:07:35.496Z,2.20
2023-03-11T11:13:13.919Z,2.40
2023-03-11T11:18:20.727Z,2.22
2023-03-11T11:23:35.010Z,2.70
2023-03-11T11:28:37.877Z,2.05
2023-03-11T11:33:50.483Z,2.35
2023-03-11T11:38:54.828Z,2.58
2023-03-11T11:44:03.962Z,2.50
2023-03-11T11:49:28.887Z,2.20
2023-03-11T11:54:35.698Z,2.03
2023-03-11T11:59:38.870Z,2.35
2023-03-11T12:05:03.816Z,2.13
2023-03-11T12:10:35.374Z,2.35
2023-03-11T12:15:41.866Z,2.30
2023-03-11T12:20:55.062Z,2.58
2023-03-11T12:26:08.092Z,2.83
2023-03-11T12:31:13.328Z,3.00
2023-03-11T12:36:31.449Z,3.30
2023-03-11T12:41:43.074Z,2.40
2023-03-11T12:46:54.986Z,2.70
2023-03-11T12:52:13.481Z,2.97
2023-03-11T12:57:16.419Z,2.55
2023-03-11T13:02:39.520Z,2.55
2023-03-11T13:07:48.384Z,2.80
2023-03-11T13:12:52.693Z,2.58
2023-03-11T13:18:03.794Z,2.60
2023-03-11T13:23:12.355Z,2.92
2023-03-11T13:28:52.322Z,2.40
2023-03-11T13:33:58.206Z,2.60
2023-03-11T13:39:19.646Z,2.72
2023-03-11T13:44:26.678Z,2.47
2023-03-11T13:49:44.629Z,2.85
2023-03-11T13:54:59.894Z,2.80
2023-03-11T14:00:16.380Z,3.63
2023-03-11T14:05:23.514Z,2.60
2023-03-11T14:10:29.395Z,3.40
2023-03-11T14:15:44.897Z,3.70
2023-03-11T14:20:49.632Z,2.60
2023-03-11T14:26:05.311Z,2.10
2023-03-11T14:31:08.352Z,3.10
2023-03-11T14:36:14.590Z,3.10
2023-03-11T14:41:17.575Z,3.80
2023-03-11T14:46:26.722Z,3.00
2023-03-11T14:51:34.638Z,2.72
2023-03-11T14:56:41.967Z,2.53
2023-03-11T15:01:48.183Z,2.55
2023-03-11T15:06:51.388Z,2.80
2023-03-11T15:11:58.349Z,1.95
2023-03-11T15:17:35.651Z,1.58
2023-03-11T15:22:41.445Z,1.98
2023-03-11T15:27:44.689Z,2.00
2023-03-11T15:32:52.102Z,2.40
2023-03-11T15:38:20.954Z,2.33
2023-03-11T15:43:41.549Z,2.35
2023-03-11T15:48:44.613Z,2.15
2023-03-11T15:53:47.666Z,2.35
2023-03-11T15:58:50.716Z,2.88
2023-03-11T16:03:53.844Z,2.40
2023-03-11T16:08:56.817Z,2.97
2023-03-11T16:14:01.320Z,2.60
2023-03-11T16:19:04.205Z,2.00
2023-03-11T16:24:07.977Z,2.10
2023-03-11T16:29:18.927Z,1.88
2023-03-11T16:34:22.416Z,2.10
2023-03-11T16:39:25.234Z,1.75
2023-03-11T16:44:28.317Z,1.58
2023-03-11T16:49:31.453Z,1.98
2023-03-11T16:54:35.294Z,2.20
2023-03-11T16:59:38.074Z,1.80
2023-03-11T17:04:41.196Z,1.73
2023-03-11T17:09:44.384Z,1.88
2023-03-11T17:14:48.550Z,1.90
2023-03-11T17:19:51.473Z,1.90
2023-03-11T17:24:54.539Z,2.05
2023-03-11T17:29:57.422Z,2.40
2023-03-11T17:35:00.404Z,2.00
2023-03-11T17:40:03.317Z,2.22
2023-03-11T17:45:06.748Z,1.80
2023-03-11T17:50:10.512Z,2.10
2023-03-11T17:55:13.589Z,1.95
2023-03-11T18:00:17.024Z,2.05
2023-03-11T18:05:21.381Z,2.50
2023-03-11T18:10:24.421Z,2.47
2023-03-11T18:15:27.284Z,2.28
2023-03-11T18:20:30.836Z,2.83
2023-03-11T18:25:34.276Z,2.65
2023-03-11T18:30:38.309Z,3.08
2023-03-11T18:35:41.239Z,2.20
2023-03-11T18:40:44.593Z,2.92
2023-03-11T18:45:47.573Z,2.17
2023-03-11T18:50:54.974Z,2.80
2023-03-11T18:56:04.068Z,3.03
2023-03-11T19:01:21.192Z,3.17
2023-03-11T19:06:26.196Z,3.53
2023-03-11T19:11:29.019Z,2.50
2023-03-11T19:16:31.983Z,4.13
2023-03-11T19:21:35.084Z,3.08
2023-03-11T19:26:46.852Z,3.75
2023-03-11T19:31:49.712Z,4.25
2023-03-11T19:36:52.581Z,4.20
2023-03-11T19:41:55.804Z,4.13
2023-03-11T19:46:58.659Z,5.00
2023-03-11T19:52:01.537Z,4.18
2023-03-11T19:57:04.543Z,4.93
2023-03-11T20:02:10.697Z,4.40
2023-03-11T20:07:13.793Z,4.45
2023-03-11T20:12:16.900Z,4.10
2023-03-11T20:17:19.804Z,5.78
2023-03-11T20:22:41.639Z,4.32
2023-03-11T20:27:44.597Z,5.53
2023-03-11T20:32:48.502Z,5.55
2023-03-11T20:37:51.469Z,5.95
2023-03-11T20:42:54.320Z,4.65
2023-03-11T20:47:57.466Z,6.18
2023-03-11T20:53:00.362Z,6.13
2023-03-11T20:58:03.354Z,7.00
2023-03-11T21:03:06.382Z,6.78
2023-03-11T21:08:09.479Z,6.90
2023-03-11T21:13:12.551Z,6.22
2023-03-11T21:18:15.529Z,7.07
2023-03-11T21:23:18.692Z,6.63
2023-03-11T21:28:21.660Z,7.25
2023-03-11T21:33:24.571Z,7.80
2023-03-11T21:38:28.331Z,5.55
2023-03-11T21:43:31.333Z,7.22
2023-03-11T21:48:34.665Z,7.88
2023-03-11T21:53:37.594Z,6.05
2023-03-11T21:58:41.309Z,5.88
2023-03-11T22:04:02.917Z,5.88
2023-03-11T22:09:06.184Z,6.57
2023-03-11T22:14:09.080Z,7.47
2023-03-11T22:19:12.069Z,7.43
2023-03-11T22:24:15.341Z,4.57
2023-03-11T22:29:18.221Z,7.10
2023-03-11T22:34:21.128Z,6.47
2023-03-11T22:39:24.003Z,4.97
2023-03-11T22:44:26.948Z,5.10
2023-03-11T22:49:29.820Z,6.03
2023-03-11T22:54:32.730Z,5.45
2023-03-11T22:59:35.656Z,5.75
2023-03-11T23:04:38.474Z,5.75
2023-03-11T23:09:43.096Z,7.25
2023-03-11T23:14:47.378Z,5.57
2023-03-11T23:19:50.250Z,7.57
2023-03-11T23:24:54.180Z,6.32
2023-03-11T23:29:57.501Z,6.22
2023-03-11T23:35:00.409Z,5.80
2023-03-11T23:40:05.210Z,6.97
2023-03-11T23:45:09.249Z,4.90
2023-03-11T23:50:12.383Z,7.78
2023-03-11T23:55:15.304Z,6.28
